sensor_id;sensor_type;location;lat;lon;timestamp;pressure;altitude;pressure_sealevel;temperature;humidity
29433;BME280;16405;53.964;13.448;2023-05-01T00:00:22;101796.16;;;1.32;98.07
29433;BME280;16405;53.964;13.448;2023-05-01T00:02:48;101794.47;;;1.35;98.45
29433;BME280;16405;53.964;13.448;2023-05-01T00:05:13;101787.56;;;1.36;98.87
29433;BME280;16405;53.964;13.448;2023-05-01T00:07:39;101791.03;;;1.36;99.26
29433;BME280;16405;53.964;13.448;2023-05-01T00:10:06;101784.09;;;1.35;99.93
29433;BME280;16405;53.964;13.448;2023-05-01T00:12:32;101792.72;;;1.31;99.14
29433;BME280;16405;53.964;13.448;2023-05-01T00:14:57;101796.13;;;1.26;98.44
29433;BME280;16405;53.964;13.448;2023-05-01T00:17:24;101787.38;;;1.16;97.50
29433;BME280;16405;53.964;13.448;2023-05-01T00:19:52;101792.44;;;1.03;97.16
29433;BME280;16405;53.964;13.448;2023-05-01T00:22:17;101783.78;;;1.00;97.63
29433;BME280;16405;53.964;13.448;2023-05-01T00:24:43;101781.19;;;1.01;97.54
29433;BME280;16405;53.964;13.448;2023-05-01T00:27:10;101786.44;;;1.08;98.12
29433;BME280;16405;53.964;13.448;2023-05-01T00:29:35;101782.13;;;1.10;98.36
29433;BME280;16405;53.964;13.448;2023-05-01T00:32:01;101780.44;;;1.12;99.85
29433;BME280;16405;53.964;13.448;2023-05-01T00:34:27;101785.66;;;1.16;100.00
29433;BME280;16405;53.964;13.448;2023-05-01T00:36:53;101787.44;;;1.22;100.00
29433;BME280;16405;53.964;13.448;2023-05-01T00:39:19;101779.69;;;1.25;100.00
29433;BME280;16405;53.964;13.448;2023-05-01T00:41:44;101772.78;;;1.29;100.00
29433;BME280;16405;53.964;13.448;2023-05-01T00:44:10;101773.69;;;1.31;100.00
29433;BME280;16405;53.964;13.448;2023-05-01T00:46:36;101772.81;;;1.32;100.00
29433;BME280;16405;53.964;13.448;2023-05-01T00:49:03;101770.25;;;1.33;100.00
29433;BME280;16405;53.964;13.448;2023-05-01T00:51:29;101764.19;;;1.30;100.00
29433;BME280;16405;53.964;13.448;2023-05-01T00:53:58;101765.88;;;1.26;100.00
29433;BME280;16405;53.964;13.448;2023-05-01T00:56:25;101752.84;;;1.20;100.00
29433;BME280;16405;53.964;13.448;2023-05-01T00:58:51;101751.94;;;1.16;100.00
29433;BME280;16405;53.964;13.448;2023-05-01T01:01:20;101747.59;;;1.14;100.00
29433;BME280;16405;53.964;13.448;2023-05-01T01:03:47;101756.25;;;1.16;100.00
29433;BME280;16405;53.964;13.448;2023-05-01T01:23:23;101734.63;;;1.14;100.00
29433;BME280;16405;53.964;13.448;2023-05-01T01:26:17;101739.78;;;1.12;100.00
29433;BME280;16405;53.964;13.448;2023-05-01T01:34:53;101734.50;;;0.98;100.00
29433;BME280;16405;53.964;13.448;2023-05-01T01:37:53;101724.09;;;0.97;100.00
29433;BME280;16405;53.964;13.448;2023-05-01T01:40:28;101718.03;;;0.93;100.00
29433;BME280;16405;53.964;13.448;2023-05-01T01:43:02;101712.84;;;0.95;100.00
29433;BME280;16405;53.964;13.448;2023-05-01T01:45:49;101710.25;;;0.95;100.00
29433;BME280;16405;53.964;13.448;2023-05-01T01:48:24;101705.88;;;0.89;100.00
29433;BME280;16405;53.964;13.448;2023-05-01T01:50:52;101715.41;;;0.92;100.00
29433;BME280;16405;53.964;13.448;2023-05-01T01:53:19;101711.97;;;0.94;100.00
29433;BME280;16405;53.964;13.448;2023-05-01T01:55:47;101712.84;;;0.96;100.00
29433;BME280;16405;53.964;13.448;2023-05-01T01:58:15;101713.75;;;0.98;100.00
29433;BME280;16405;53.964;13.448;2023-05-01T02:00:43;101712.88;;;0.98;100.00
29433;BME280;16405;53.964;13.448;2023-05-01T02:03:11;101716.34;;;1.00;100.00
29433;BME280;16405;53.964;13.448;2023-05-01T02:05:40;101712.00;;;0.99;100.00
29433;BME280;16405;53.964;13.448;2023-05-01T02:08:08;101703.38;;;0.98;100.00
29433;BME280;16405;53.964;13.448;2023-05-01T02:10:36;101711.16;;;1.00;100.00
29433;BME280;16405;53.964;13.448;2023-05-01T02:13:02;101708.56;;;1.00;100.00
29433;BME280;16405;53.964;13.448;2023-05-01T02:15:29;101711.16;;;1.01;100.00
29433;BME280;16405;53.964;13.448;2023-05-01T02:17:57;101705.97;;;0.98;100.00
29433;BME280;16405;53.964;13.448;2023-05-01T02:20:25;101704.25;;;0.97;100.00
29433;BME280;16405;53.964;13.448;2023-05-01T02:22:54;101699.06;;;0.97;100.00
29433;BME280;16405;53.964;13.448;2023-05-01T02:25:20;101699.06;;;0.97;100.00
29433;BME280;16405;53.964;13.448;2023-05-01T02:27:54;101686.88;;;0.92;100.00
29433;BME280;16405;53.964;13.448;2023-05-01T02:30:20;101684.28;;;0.90;100.00
29433;BME280;16405;53.964;13.448;2023-05-01T02:32:46;101686.00;;;0.90;100.00
29433;BME280;16405;53.964;13.448;2023-05-01T02:35:12;101680.72;;;0.82;100.00
29433;BME280;16405;53.964;13.448;2023-05-01T02:37:38;101681.56;;;0.76;100.00
29433;BME280;16405;53.964;13.448;2023-05-01T02:40:05;101671.13;;;0.69;100.00
29433;BME280;16405;53.964;13.448;2023-05-01T02:42:32;101672.84;;;0.65;100.00
29433;BME280;16405;53.964;13.448;2023-05-01T02:45:03;101679.69;;;0.58;100.00
29433;BME280;16405;53.964;13.448;2023-05-01T02:47:34;101685.69;;;0.54;100.00
29433;BME280;16405;53.964;13.448;2023-05-01T02:50:02;101682.16;;;0.48;100.00
29433;BME280;16405;53.964;13.448;2023-05-01T02:52:29;101684.72;;;0.46;100.00
29433;BME280;16405;53.964;13.448;2023-05-01T02:54:55;101675.16;;;0.39;100.00
29433;BME280;16405;53.964;13.448;2023-05-01T02:57:22;101679.47;;;0.40;100.00
29433;BME280;16405;53.964;13.448;2023-05-01T02:59:48;101681.16;;;0.35;100.00
29433;BME280;16405;53.964;13.448;2023-05-01T03:02:14;101676.88;;;0.37;100.00
29433;BME280;16405;53.964;13.448;2023-05-01T03:04:41;101677.75;;;0.39;100.00
29433;BME280;16405;53.964;13.448;2023-05-01T03:07:08;101672.66;;;0.48;100.00
29433;BME280;16405;53.964;13.448;2023-05-01T03:09:34;101678.81;;;0.56;100.00
29433;BME280;16405;53.964;13.448;2023-05-01T03:11:59;101677.94;;;0.59;100.00
29433;BME280;16405;53.964;13.448;2023-05-01T03:14:25;101680.59;;;0.67;100.00
29433;BME280;16405;53.964;13.448;2023-05-01T03:16:53;101677.19;;;0.69;100.00
29433;BME280;16405;53.964;13.448;2023-05-01T03:19:19;101672.03;;;0.72;100.00
29433;BME280;16405;53.964;13.448;2023-05-01T03:21:45;101678.00;;;0.64;100.00
29433;BME280;16405;53.964;13.448;2023-05-01T03:24:11;101671.13;;;0.67;100.00
29433;BME280;16405;53.964;13.448;2023-05-01T03:26:37;101670.22;;;0.67;100.00
29433;BME280;16405;53.964;13.448;2023-05-01T03:29:03;101661.63;;;0.69;100.00
29433;BME280;16405;53.964;13.448;2023-05-01T03:31:29;101662.50;;;0.71;100.00
29433;BME280;16405;53.964;13.448;2023-05-01T03:33:55;101661.59;;;0.63;100.00
29433;BME280;16405;53.964;13.448;2023-05-01T03:36:20;101666.81;;;0.71;100.00
29433;BME280;16405;53.964;13.448;2023-05-01T03:38:47;101659.94;;;0.74;100.00
29433;BME280;16405;53.964;13.448;2023-05-01T03:41:13;101663.41;;;0.76;100.00
29433;BME280;16405;53.964;13.448;2023-05-01T03:43:39;101659.13;;;0.78;100.00
29433;BME280;16405;53.964;13.448;2023-05-01T03:46:04;101656.53;;;0.81;100.00
29433;BME280;16405;53.964;13.448;2023-05-01T03:48:31;101657.47;;;0.88;100.00
29433;BME280;16405;53.964;13.448;2023-05-01T03:50:56;101650.59;;;0.92;100.00
29433;BME280;16405;53.964;13.448;2023-05-01T03:53:23;101656.63;;;0.92;100.00
29433;BME280;16405;53.964;13.448;2023-05-01T03:55:49;101654.09;;;0.98;100.00
29433;BME280;16405;53.964;13.448;2023-05-01T03:58:14;101650.69;;;1.04;100.00
29433;BME280;16405;53.964;13.448;2023-05-01T04:00:40;101652.47;;;1.13;100.00
29433;BME280;16405;53.964;13.448;2023-05-01T04:03:06;101639.59;;;1.23;100.00
29433;BME280;16405;53.964;13.448;2023-05-01T04:05:32;101648.31;;;1.36;100.00
29433;BME280;16405;53.964;13.448;2023-05-01T04:07:58;101645.75;;;1.44;100.00
29433;BME280;16405;53.964;13.448;2023-05-01T04:10:24;101647.59;;;1.65;100.00
29433;BME280;16405;53.964;13.448;2023-05-01T04:12:50;101653.81;;;2.07;100.00
29433;BME280;16405;53.964;13.448;2023-05-01T04:15:16;101653.94;;;3.27;100.00
29433;BME280;16405;53.964;13.448;2023-05-01T04:17:42;101664.84;;;4.32;100.00
29433;BME280;16405;53.964;13.448;2023-05-01T04:20:09;101667.06;;;5.77;95.64
29433;BME280;16405;53.964;13.448;2023-05-01T04:22:36;101678.97;;;7.21;87.87
29433;BME280;16405;53.964;13.448;2023-05-01T04:25:02;101673.47;;;7.81;80.70
29433;BME280;16405;53.964;13.448;2023-05-01T04:27:29;101685.69;;;9.36;74.57
29433;BME280;16405;53.964;13.448;2023-05-01T04:29:56;101683.09;;;10.86;68.39
29433;BME280;16405;53.964;13.448;2023-05-01T04:32:22;101675.47;;;12.04;63.08
29433;BME280;16405;53.964;13.448;2023-05-01T04:34:48;101683.16;;;12.56;60.43
29433;BME280;16405;53.964;13.448;2023-05-01T04:37:13;101685.25;;;12.92;58.19
29433;BME280;16405;53.964;13.448;2023-05-01T04:39:42;101689.44;;;13.61;55.56
29433;BME280;16405;53.964;13.448;2023-05-01T04:42:08;101707.16;;;14.56;54.02
29433;BME280;16405;53.964;13.448;2023-05-01T04:44:34;101720.16;;;15.51;51.94
29433;BME280;16405;53.964;13.448;2023-05-01T04:47:02;101717.50;;;15.34;51.52
29433;BME280;16405;53.964;13.448;2023-05-01T04:49:29;101722.09;;;16.79;48.73
29433;BME280;16405;53.964;13.448;2023-05-01T04:51:55;101739.72;;;17.73;46.31
29433;BME280;16405;53.964;13.448;2023-05-01T04:54:21;101750.06;;;19.32;44.14
29433;BME280;16405;53.964;13.448;2023-05-01T04:56:48;101761.03;;;20.32;42.46
29433;BME280;16405;53.964;13.448;2023-05-01T04:59:14;101761.84;;;20.45;41.68
29433;BME280;16405;53.964;13.448;2023-05-01T05:01:40;101778.31;;;21.49;40.08
29433;BME280;16405;53.964;13.448;2023-05-01T05:04:05;101776.94;;;22.13;38.49
29433;BME280;16405;53.964;13.448;2023-05-01T05:06:32;101779.41;;;22.16;37.78
29433;BME280;16405;53.964;13.448;2023-05-01T05:08:58;101790.50;;;22.45;37.86
29433;BME280;16405;53.964;13.448;2023-05-01T05:11:23;101800.91;;;23.48;36.43
29433;BME280;16405;53.964;13.448;2023-05-01T05:13:49;101781.16;;;22.40;36.98
29433;BME280;16405;53.964;13.448;2023-05-01T05:16:15;101792.94;;;22.37;36.84
29433;BME280;16405;53.964;13.448;2023-05-01T05:18:42;101795.09;;;23.32;35.71
29433;BME280;16405;53.964;13.448;2023-05-01T05:21:07;101812.00;;;24.49;34.95
29433;BME280;16405;53.964;13.448;2023-05-01T05:23:35;101821.13;;;25.27;33.71
29433;BME280;16405;53.964;13.448;2023-05-01T05:26:01;101830.84;;;26.06;32.84
29433;BME280;16405;53.964;13.448;2023-05-01T05:28:28;101816.59;;;25.47;33.01
29433;BME280;16405;53.964;13.448;2023-05-01T05:30:57;101817.56;;;25.46;32.75
29433;BME280;16405;53.964;13.448;2023-05-01T05:33:23;101815.16;;;24.54;33.61
29433;BME280;16405;53.964;13.448;2023-05-01T05:35:52;101822.22;;;24.34;34.34
29433;BME280;16405;53.964;13.448;2023-05-01T05:38:18;101816.63;;;24.87;33.10
29433;BME280;16405;53.964;13.448;2023-05-01T05:40:45;101812.28;;;23.94;34.58
29433;BME280;16405;53.964;13.448;2023-05-01T05:43:10;101811.88;;;23.24;34.40
29433;BME280;16405;53.964;13.448;2023-05-01T05:45:36;101818.06;;;23.57;35.04
29433;BME280;16405;53.964;13.448;2023-05-01T05:48:03;101821.16;;;23.52;35.07
29433;BME280;16405;53.964;13.448;2023-05-01T05:50:29;101825.22;;;24.31;34.18
29433;BME280;16405;53.964;13.448;2023-05-01T05:52:55;101831.72;;;25.19;33.23
29433;BME280;16405;53.964;13.448;2023-05-01T05:55:21;101849.88;;;26.14;32.55
29433;BME280;16405;53.964;13.448;2023-05-01T05:57:46;101848.00;;;26.72;31.70
29433;BME280;16405;53.964;13.448;2023-05-01T06:00:13;101853.13;;;26.55;31.51
29433;BME280;16405;53.964;13.448;2023-05-01T06:02:39;101855.34;;;26.32;31.26
29433;BME280;16405;53.964;13.448;2023-05-01T06:05:06;101832.91;;;25.46;32.29
29433;BME280;16405;53.964;13.448;2023-05-01T06:07:32;101841.00;;;25.36;32.64
29433;BME280;16405;53.964;13.448;2023-05-01T06:09:58;101846.81;;;25.61;32.66
29433;BME280;16405;53.964;13.448;2023-05-01T06:12:29;101859.13;;;25.83;32.15
29433;BME280;16405;53.964;13.448;2023-05-01T06:14:57;101864.28;;;26.43;31.77
29433;BME280;16405;53.964;13.448;2023-05-01T06:17:25;101858.47;;;26.37;31.92
29433;BME280;16405;53.964;13.448;2023-05-01T06:19:51;101866.34;;;26.96;31.31
29433;BME280;16405;53.964;13.448;2023-05-01T06:22:18;101860.88;;;26.40;31.28
29433;BME280;16405;53.964;13.448;2023-05-01T06:24:44;101861.19;;;26.37;31.26
29433;BME280;16405;53.964;13.448;2023-05-01T06:27:10;101851.06;;;25.44;32.15
29433;BME280;16405;53.964;13.448;2023-05-01T06:29:36;101849.03;;;24.35;33.26
29433;BME280;16405;53.964;13.448;2023-05-01T06:32:02;101829.91;;;23.33;33.55
29433;BME280;16405;53.964;13.448;2023-05-01T06:34:29;101830.56;;;23.14;35.18
29433;BME280;16405;53.964;13.448;2023-05-01T06:36:55;101837.84;;;23.88;34.41
29433;BME280;16405;53.964;13.448;2023-05-01T06:39:21;101850.78;;;24.46;33.86
29433;BME280;16405;53.964;13.448;2023-05-01T06:41:47;101848.13;;;24.96;33.50
29433;BME280;16405;53.964;13.448;2023-05-01T06:44:14;101848.13;;;24.96;32.80
29433;BME280;16405;53.964;13.448;2023-05-01T06:46:39;101846.97;;;24.49;32.89
29433;BME280;16405;53.964;13.448;2023-05-01T06:49:05;101846.06;;;25.10;33.15
29433;BME280;16405;53.964;13.448;2023-05-01T06:51:32;101851.06;;;25.34;32.80
29433;BME280;16405;53.964;13.448;2023-05-01T06:53:57;101851.91;;;25.73;32.81
29433;BME280;16405;53.964;13.448;2023-05-01T06:56:23;101857.66;;;26.17;32.03
29433;BME280;16405;53.964;13.448;2023-05-01T06:58:49;101858.16;;;26.40;31.58
29433;BME280;16405;53.964;13.448;2023-05-01T07:01:16;101854.41;;;26.89;31.22
29433;BME280;16405;53.964;13.448;2023-05-01T07:03:42;101854.16;;;26.82;30.99
29433;BME280;16405;53.964;13.448;2023-05-01T07:06:08;101867.09;;;27.06;31.00
29433;BME280;16405;53.964;13.448;2023-05-01T07:08:34;101861.53;;;26.90;30.81
29433;BME280;16405;53.964;13.448;2023-05-01T07:10:59;101846.63;;;26.86;29.88
29433;BME280;16405;53.964;13.448;2023-05-01T07:13:26;101856.13;;;27.35;30.60
29433;BME280;16405;53.964;13.448;2023-05-01T07:15:51;101844.41;;;26.99;30.86
29433;BME280;16405;53.964;13.448;2023-05-01T07:18:18;101845.41;;;27.44;30.74
29433;BME280;16405;53.964;13.448;2023-05-01T07:20:44;101846.94;;;27.46;30.56
29433;BME280;16405;53.964;13.448;2023-05-01T07:23:10;101847.31;;;27.69;29.45
29433;BME280;16405;53.964;13.448;2023-05-01T07:25:39;101852.03;;;27.67;29.51
29433;BME280;16405;53.964;13.448;2023-05-01T07:28:06;101854.03;;;28.35;28.78
29433;BME280;16405;53.964;13.448;2023-05-01T07:30:34;101844.69;;;27.41;29.70
29433;BME280;16405;53.964;13.448;2023-05-01T07:33:00;101841.31;;;28.01;29.97
29433;BME280;16405;53.964;13.448;2023-05-01T07:35:26;101831.81;;;27.79;29.54
29433;BME280;16405;53.964;13.448;2023-05-01T07:37:52;101839.34;;;27.68;30.26
29433;BME280;16405;53.964;13.448;2023-05-01T07:40:19;101825.81;;;26.68;30.29
29433;BME280;16405;53.964;13.448;2023-05-01T07:42:45;101808.19;;;25.70;31.04
29433;BME280;16405;53.964;13.448;2023-05-01T07:45:11;101810.72;;;26.01;31.65
29433;BME280;16405;53.964;13.448;2023-05-01T07:47:37;101812.00;;;26.44;31.58
29433;BME280;16405;53.964;13.448;2023-05-01T07:50:03;101818.78;;;27.03;31.24
29433;BME280;16405;53.964;13.448;2023-05-01T07:52:29;101821.66;;;27.55;30.27
29433;BME280;16405;53.964;13.448;2023-05-01T07:54:55;101823.00;;;27.95;30.26
29433;BME280;16405;53.964;13.448;2023-05-01T07:57:21;101827.13;;;28.34;30.05
29433;BME280;16405;53.964;13.448;2023-05-01T07:59:54;101825.00;;;28.19;29.65
29433;BME280;16405;53.964;13.448;2023-05-01T08:02:21;101818.91;;;27.91;29.58
29433;BME280;16405;53.964;13.448;2023-05-01T08:04:47;101806.09;;;27.57;29.80
29433;BME280;16405;53.964;13.448;2023-05-01T08:07:13;101802.31;;;26.96;30.32
29433;BME280;16405;53.964;13.448;2023-05-01T08:09:39;101790.56;;;27.06;30.58
29433;BME280;16405;53.964;13.448;2023-05-01T08:12:05;101783.41;;;26.78;30.63
29433;BME280;16405;53.964;13.448;2023-05-01T08:14:31;101782.13;;;26.45;31.13
29433;BME280;16405;53.964;13.448;2023-05-01T08:16:57;101783.66;;;26.57;31.17
29433;BME280;16405;53.964;13.448;2023-05-01T08:19:23;101782.50;;;26.23;30.70
29433;BME280;16405;53.964;13.448;2023-05-01T08:21:49;101776.81;;;26.26;31.33
29433;BME280;16405;53.964;13.448;2023-05-01T08:24:15;101770.19;;;26.10;31.52
29433;BME280;16405;53.964;13.448;2023-05-01T08:26:41;101768.84;;;25.96;31.95
29433;BME280;16405;53.964;13.448;2023-05-01T08:29:08;101766.31;;;25.66;31.44
29433;BME280;16405;53.964;13.448;2023-05-01T08:31:34;101765.63;;;25.54;31.98
29433;BME280;16405;53.964;13.448;2023-05-01T08:34:05;101753.00;;;25.15;31.78
29433;BME280;16405;53.964;13.448;2023-05-01T08:36:31;101751.28;;;24.75;32.06
29433;BME280;16405;53.964;13.448;2023-05-01T08:38:59;101739.38;;;24.28;33.16
29433;BME280;16405;53.964;13.448;2023-05-01T08:41:26;101725.91;;;23.97;33.36
29433;BME280;16405;53.964;13.448;2023-05-01T08:43:56;101729.31;;;23.26;33.99
29433;BME280;16405;53.964;13.448;2023-05-01T08:49:16;101704.69;;;22.78;36.32
29433;BME280;16405;53.964;13.448;2023-05-01T08:51:46;101681.88;;;22.28;36.45
29433;BME280;16405;53.964;13.448;2023-05-01T08:54:14;101672.47;;;22.00;37.37
29433;BME280;16405;53.964;13.448;2023-05-01T08:56:42;101671.50;;;21.67;37.71
29433;BME280;16405;53.964;13.448;2023-05-01T08:59:13;101659.56;;;21.14;37.63
29433;BME280;16405;53.964;13.448;2023-05-01T09:01:44;101652.69;;;20.98;38.50
29433;BME280;16405;53.964;13.448;2023-05-01T09:04:13;101646.28;;;20.77;38.96
29433;BME280;16405;53.964;13.448;2023-05-01T09:06:39;101641.94;;;20.39;38.02
29433;BME280;16405;53.964;13.448;2023-05-01T09:09:05;101638.44;;;20.62;39.13
29433;BME280;16405;53.964;13.448;2023-05-01T09:11:32;101637.25;;;20.66;38.45
29433;BME280;16405;53.964;13.448;2023-05-01T09:13:59;101620.22;;;20.67;38.86
29433;BME280;16405;53.964;13.448;2023-05-01T09:16:26;101617.66;;;20.66;38.76
29433;BME280;16405;53.964;13.448;2023-05-01T09:18:54;101611.72;;;20.25;38.50
29433;BME280;16405;53.964;13.448;2023-05-01T09:21:20;101604.41;;;20.52;39.19
29433;BME280;16405;53.964;13.448;2023-05-01T09:23:53;101605.72;;;20.59;39.14
29433;BME280;16405;53.964;13.448;2023-05-01T09:26:19;101593.97;;;20.48;39.74
29433;BME280;16405;53.964;13.448;2023-05-01T09:28:49;101586.41;;;20.18;39.34
29433;BME280;16405;53.964;13.448;2023-05-01T09:31:29;101584.31;;;20.35;40.06
29433;BME280;16405;53.964;13.448;2023-05-01T09:34:02;101574.59;;;20.45;39.62
29433;BME280;16405;53.964;13.448;2023-05-01T09:36:32;101564.50;;;20.13;40.08
29433;BME280;16405;53.964;13.448;2023-05-01T09:39:00;101562.69;;;19.77;39.26
29433;BME280;16405;53.964;13.448;2023-05-01T09:41:29;101560.34;;;19.72;40.13
29433;BME280;16405;53.964;13.448;2023-05-01T09:44:01;101546.44;;;19.54;39.72
29433;BME280;16405;53.964;13.448;2023-05-01T09:46:45;101544.09;;;19.50;39.94
29433;BME280;16405;53.964;13.448;2023-05-01T09:49:11;101537.91;;;19.62;40.79
29433;BME280;16405;53.964;13.448;2023-05-01T09:51:41;101533.19;;;19.65;40.16
29433;BME280;16405;53.964;13.448;2023-05-01T09:54:18;101531.78;;;19.85;39.27
29433;BME280;16405;53.964;13.448;2023-05-01T09:56:50;101539.41;;;20.03;39.01
29433;BME280;16405;53.964;13.448;2023-05-01T09:59:19;101538.50;;;20.15;39.91
29433;BME280;16405;53.964;13.448;2023-05-01T10:01:46;101538.91;;;20.22;39.40
29433;BME280;16405;53.964;13.448;2023-05-01T10:04:17;101541.19;;;20.86;38.58
29433;BME280;16405;53.964;13.448;2023-05-01T10:06:54;101543.41;;;20.92;38.88
29433;BME280;16405;53.964;13.448;2023-05-01T10:09:30;101531.47;;;20.74;37.73
29433;BME280;16405;53.964;13.448;2023-05-01T10:12:00;101536.94;;;20.83;38.11
29433;BME280;16405;53.964;13.448;2023-05-01T10:14:29;101524.16;;;20.52;39.44
29433;BME280;16405;53.964;13.448;2023-05-01T10:17:16;101522.47;;;20.51;38.57
29433;BME280;16405;53.964;13.448;2023-05-01T10:19:44;101516.72;;;20.33;39.06
29433;BME280;16405;53.964;13.448;2023-05-01T10:22:16;101501.91;;;20.40;39.05
29433;BME280;16405;53.964;13.448;2023-05-01T10:24:43;101493.59;;;20.32;40.37
29433;BME280;16405;53.964;13.448;2023-05-01T10:27:12;101488.09;;;20.22;39.41
29433;BME280;16405;53.964;13.448;2023-05-01T10:29:45;101491.38;;;20.25;40.48
29433;BME280;16405;53.964;13.448;2023-05-01T10:32:15;101486.59;;;20.42;38.92
29433;BME280;16405;53.964;13.448;2023-05-01T10:34:56;101481.31;;;20.64;39.02
29433;BME280;16405;53.964;13.448;2023-05-01T10:40:47;101459.78;;;19.58;37.78
29433;BME280;16405;53.964;13.448;2023-05-01T10:43:27;101452.06;;;19.42;39.04
29433;BME280;16405;53.964;13.448;2023-05-01T10:51:17;101443.41;;;19.63;38.70
29433;BME280;16405;53.964;13.448;2023-05-01T10:59:03;101450.44;;;20.83;38.15
29433;BME280;16405;53.964;13.448;2023-05-01T11:01:31;101453.50;;;21.01;38.69
29433;BME280;16405;53.964;13.448;2023-05-01T11:12:01;101414.72;;;19.54;39.57
29433;BME280;16405;53.964;13.448;2023-05-01T11:14:27;101394.16;;;19.43;39.17
29433;BME280;16405;53.964;13.448;2023-05-01T11:20:08;101403.56;;;19.36;38.62
29433;BME280;16405;53.964;13.448;2023-05-01T11:22:36;101403.22;;;19.77;40.99
29433;BME280;16405;53.964;13.448;2023-05-01T11:25:03;101386.88;;;19.93;38.75
29433;BME280;16405;53.964;13.448;2023-05-01T11:27:50;101390.59;;;20.15;38.18
29433;BME280;16405;53.964;13.448;2023-05-01T11:30:17;101393.44;;;20.36;38.84
29433;BME280;16405;53.964;13.448;2023-05-01T11:32:46;101379.81;;;20.39;40.45
29433;BME280;16405;53.964;13.448;2023-05-01T11:35:23;101382.84;;;20.34;38.50
29433;BME280;16405;53.964;13.448;2023-05-01T11:37:51;101386.25;;;20.25;37.70
29433;BME280;16405;53.964;13.448;2023-05-01T11:40:26;101376.38;;;20.14;38.47
29433;BME280;16405;53.964;13.448;2023-05-01T11:45:29;101358.56;;;19.91;37.77
29433;BME280;16405;53.964;13.448;2023-05-01T11:47:56;101354.81;;;19.93;38.52
29433;BME280;16405;53.964;13.448;2023-05-01T11:53:00;101347.91;;;20.02;39.23
29433;BME280;16405;53.964;13.448;2023-05-01T11:55:35;101354.81;;;19.93;38.18
29433;BME280;16405;53.964;13.448;2023-05-01T11:58:03;101354.13;;;20.02;38.95
29433;BME280;16405;53.964;13.448;2023-05-01T12:00:35;101358.66;;;20.36;37.71
29433;BME280;16405;53.964;13.448;2023-05-01T12:03:13;101353.13;;;20.61;37.50
29433;BME280;16405;53.964;13.448;2023-05-01T12:05:42;101350.09;;;20.66;38.95
29433;BME280;16405;53.964;13.448;2023-05-01T12:08:19;101348.72;;;20.49;38.20
29433;BME280;16405;53.964;13.448;2023-05-01T12:10:54;101334.84;;;20.33;37.42
29433;BME280;16405;53.964;13.448;2023-05-01T12:13:21;101343.59;;;20.35;37.41
29433;BME280;16405;53.964;13.448;2023-05-01T12:15:52;101327.97;;;20.06;36.64
29433;BME280;16405;53.964;13.448;2023-05-01T12:18:19;101317.16;;;19.37;36.96
29433;BME280;16405;53.964;13.448;2023-05-01T12:20:48;101319.88;;;19.48;37.52
29433;BME280;16405;53.964;13.448;2023-05-01T12:23:17;101318.41;;;19.20;38.55
29433;BME280;16405;53.964;13.448;2023-05-01T12:25:44;101311.91;;;19.11;39.25
29433;BME280;16405;53.964;13.448;2023-05-01T12:28:18;101300.44;;;19.22;39.28
29433;BME280;16405;53.964;13.448;2023-05-01T12:30:48;101300.78;;;19.41;38.71
29433;BME280;16405;53.964;13.448;2023-05-01T12:33:15;101306.56;;;19.83;38.62
29433;BME280;16405;53.964;13.448;2023-05-01T12:35:43;101301.34;;;19.58;37.70
29433;BME280;16405;53.964;13.448;2023-05-01T12:38:19;101306.03;;;19.78;38.88
29433;BME280;16405;53.964;13.448;2023-05-01T12:40:58;101306.75;;;20.16;38.66
29433;BME280;16405;53.964;13.448;2023-05-01T12:43:35;101301.03;;;20.32;37.66
29433;BME280;16405;53.964;13.448;2023-05-01T12:46:03;101302.03;;;20.42;36.22
29433;BME280;16405;53.964;13.448;2023-05-01T12:48:30;101299.81;;;20.47;37.25
29433;BME280;16405;53.964;13.448;2023-05-01T12:50:59;101301.78;;;20.56;38.66
29433;BME280;16405;53.964;13.448;2023-05-01T12:53:27;101296.69;;;20.64;37.56
29433;BME280;16405;53.964;13.448;2023-05-01T12:55:58;101294.63;;;20.57;37.74
29433;BME280;16405;53.964;13.448;2023-05-01T12:58:37;101285.16;;;20.64;37.60
29433;BME280;16405;53.964;13.448;2023-05-01T13:01:03;101284.75;;;20.80;38.60
29433;BME280;16405;53.964;13.448;2023-05-01T13:03:30;101280.06;;;20.61;38.08
29433;BME280;16405;53.964;13.448;2023-05-01T13:06:02;101281.84;;;20.26;37.33
29433;BME280;16405;53.964;13.448;2023-05-01T13:08:37;101265.31;;;20.33;38.08
29433;BME280;16405;53.964;13.448;2023-05-01T13:11:12;101275.28;;;20.42;39.02
29433;BME280;16405;53.964;13.448;2023-05-01T13:13:38;101270.66;;;20.33;38.57
29433;BME280;16405;53.964;13.448;2023-05-01T13:16:11;101266.06;;;20.57;37.74
29433;BME280;16405;53.964;13.448;2023-05-01T13:18:49;101256.03;;;20.82;38.24
29433;BME280;16405;53.964;13.448;2023-05-01T13:21:21;101262.09;;;20.95;38.00
29433;BME280;16405;53.964;13.448;2023-05-01T13:23:58;101263.78;;;20.96;37.17
29433;BME280;16405;53.964;13.448;2023-05-01T13:26:30;101250.28;;;20.98;37.31
29433;BME280;16405;53.964;13.448;2023-05-01T13:28:58;101261.13;;;20.96;37.07
29433;BME280;16405;53.964;13.448;2023-05-01T13:31:26;101245.00;;;20.53;36.39
29433;BME280;16405;53.964;13.448;2023-05-01T13:33:54;101238.19;;;19.81;37.34
29433;BME280;16405;53.964;13.448;2023-05-01T13:36:21;101224.16;;;19.66;37.04
29433;BME280;16405;53.964;13.448;2023-05-01T13:38:49;101224.63;;;19.60;38.02
29433;BME280;16405;53.964;13.448;2023-05-01T13:41:18;101224.47;;;19.85;38.01